Airfield :
LOGIN :

Register | Disclaimer

   EN    FR    IT 

 










Legend :    VFR   Marginal VFR   IFR   Intensive IFR   Very Intensive IFR
Visi :
Ceiling :
>= 8 km
>= 3000ft
5 to 8 km
1000 to 3000 ft
1500m to 5 km
500 to 1000 ft
800 to 1500m
200 to 500 ft
< 800m
< 200 ft
Symbols :   Thunderstorms  Fog  Heavy snow  Heavy precipitations  Wind > 20 kt
SIGMETs :     Misc.  Thunderstorms  Icing  Turbulence  Mountain Waves  Volcanic Ashes







- Airport Elevation : 327 ft
- IATA code : BHX
- Download approach charts


EGBB - Birmingham

CURRENT METAR :
  • 210250Z 17010KT 9999 BKN019 13/11 Q0997

EXPIRED METARs :
  • 210220Z 18009KT 9999 SCT025 12/11 Q0998
  • 210150Z 18008KT 9999 SCT020 13/12 Q0998
  • 210120Z 18008KT 9999 SCT006 13/12 Q0998
  • 210050Z 18011KT 9999 -DZ SCT004 BKN013 13/13 Q0998 RERA
  • 210020Z 16013KT 2900 RA BKN006 BKN010 13/12 Q0999 RERA

TAF AMD TAF EGBB
Valid from the 21 at 00:00 until the 22 at 00:00 UTC


210005Z 2100/2124 16015G25KT 4000 RA BKN008
BECMG 2100/2102 19012KT 9999 NSW SCT030
PROB30
TEMPO 2102/2105 20016G26KT 7000 SHRA
BECMG 2105/2108 20020G30KT
TEMPO 2108/2117 7000 SHRA
PROB30
TEMPO 2108/2117 22030G42KT 4000 +SHRA
BECMG 2117/2120 24015KT
PROB30
TEMPO 2117/2124 26018G28KT 7000 SHRA
ATIS : +44 121 780 0910
No reported NOTAMs for that airfield.
1 SIGMET reported for the London FIR (EGTT) :
 
Severe turbulence
EGTT SIGMET 01 VALID 210200/210600 EGRR
EGTT LONDON FIR SEV TURB FCST WI N4850 W00800 - N5100 W00800 - N5220 W00530 - N5340 W00530 - N5340 W00400 - N4937 W00400 - N4850 W00800 SFC/FL060 MOV E 20KT NC=



MET'MAP, your aeronautical weather chart ! - Copyright ORBIFLY December 2007 - Disclaimer

ORBIFLY MET'MAP TEAM :

Programming & Development : Alexandra Zaïnal
Concept & Development : Baudouin d'Aumeries
Co-Development & Prog : Marc-Olivier Méhu
Technical & hardware support : Manuel Goepfert

Contact : metmap@orbifly.com




SOURCES & CREDITS :

   NOAA